X  SluitMETAR luchtvaart weer gegevens      EHGG Eelde

Temperatuur

8°C Temperatuur

8°C Dauwpunt

100% Vochtigheid



Wind

 3 KM/U

 2 MPH

 1 M/S

 2 KTS



210°
Zuid Zuid
West
Huidig weer

Helder Helder
Luchtdruk 1024.92 (hPa) - 30.27 (in)
Zicht 5 (mi) - 8 (km)
Vliegveld
Vliegveld code EHGG

Locatie Eelde 50 (km)

Metar:
EHGG 210055Z AUTO 21002KT 8000 NCD 08/08 Q1025

Tijd: 21-08-2019 02:55